• Join FlightAware (Why Join?)
  • Login
  • US Flag 
10:42AM EDT


 

Airport Tracker/Info


-or-


 

Live Flight TrackerFlight Track Log ✈ EGF2976 ✈ 07-Jul-2013 ✈ KORD - KMCI

Flight Track Log - Related Links

Times and Time Zones

All times are in EDT time to prevent confusion due to time zone crossing. See the EGF2976 flight status page for this flight to view local times or setup timezone preferences in your user account.

Time Position Orientation Groundspeed Altitude Reporting Facility
EDT Latitude Longitude Course Direction KTS MPH feet Rate Location/Type
08:01PM 41.9481 -87.9508 254° West 173 199 2,600  Level Chicago Center
08:02PM 41.9450 -88.0292 267° West 196 226 3,800 1,140 Climbing Chicago Center
08:03PM 41.9425 -88.1261 268° West 244 281 5,000 1,440 Climbing Chicago Center
08:04PM 41.9378 -88.2236 266° West 262 302 6,800 1,920 Climbing Chicago Center
08:05PM 41.8471 -88.4147 255° West  Level FlightAware Approximate
08:05PM 41.9314 -88.3436 266° West 271 312 9,100  Level Chicago Center
08:06PM 41.8230 -88.5304 254° West  Level FlightAware Approximate
08:06PM 41.9042 -88.4494 251° West 298 343 10,700  Level Chicago Center
08:07PM 41.8747 -88.5608 250° West 316 364 12,200 1,380 Climbing Chicago Center
08:08PM 41.8453 -88.6767 251° West 329 379 13,600 1,440 Climbing Chicago Center
08:09PM 41.8089 -88.8178 251° West 338 389 15,200 1,500 Climbing Chicago Center
08:10PM 41.7772 -88.9406 251° West 349 402 16,700 1,260 Climbing Chicago Center
08:11PM 41.7450 -89.0622 250° West 351 404 17,900 1,380 Climbing Chicago Center
08:12PM 41.7136 -89.1858 251° West 355 409 19,600 1,560 Climbing Chicago Center
08:13PM 41.6817 -89.3064 251° West 349 402 21,200 1,500 Climbing Chicago Center
08:14PM 41.6439 -89.4508 251° West 345 397 22,800 1,440 Climbing Chicago Center
08:15PM 41.6128 -89.5678 250° West 343 395 24,200 1,320 Climbing Chicago Center
08:16PM 41.5800 -89.6897 250° West 344 396 25,600 1,260 Climbing Chicago Center
08:17PM 41.5483 -89.8097 251° West 348 400 26,900 1,200 Climbing Chicago Center
08:18PM 41.5158 -89.9289 250° West 346 398 28,100 1,260 Climbing Chicago Center
08:19PM 41.4769 -90.0753 251° West 348 400 29,600 1,200 Climbing Chicago Center
08:20PM 41.4431 -90.1983 250° West 352 405 30,700 1,020 Climbing Chicago Center
08:21PM 41.4097 -90.3219 250° West 355 409 31,800 1,020 Climbing Chicago Center
08:22PM 41.3750 -90.4467 250° West 358 412 32,900 960 Climbing Chicago Center
08:23PM 41.3225 -90.5631 239° Southwest 368 423 33,900 960 Climbing Chicago Center
08:24PM 41.2656 -90.6786 237° Southwest 373 429 34,900 900 Climbing Chicago Center
08:25PM 41.1986 -90.8172 237° Southwest 375 432 35,800 480 Climbing Chicago Center
08:26PM 41.1414 -90.9356 237° Southwest 381 438 36,000 60 Climbing Chicago Center
08:28PM 41.0786 -91.0617 237° Southwest 407 468 36,000  Level Chicago Center
08:29PM 41.0142 -91.1931 237° Southwest 423 487 36,000  Level Chicago Center
08:30PM 40.9378 -91.3447 236° Southwest 440 506 36,000  Level Chicago Center
08:31PM 40.8711 -91.4800 237° Southwest 444 511 36,000  Level Chicago Center
08:32PM 40.8031 -91.6147 236° Southwest 445 512 36,000  Level Chicago Center
08:33PM 40.7364 -91.7494 237° Southwest 443 510 36,000 -480 Level Chicago Center
08:34PM 40.6558 -91.9092 236° Southwest 439 505 35,100 -960 Descending Chicago Center
08:35PM 40.6014 -92.0144 236° Southwest 439 505 34,300 -600 Descending Kansas City Center
08:36PM 40.5353 -92.1475 237° Southwest 438 504 34,000 -180 Descending Kansas City Center
08:37PM 40.4669 -92.2797 236° Southwest 441 507 34,000  Level Kansas City Center
08:38PM 40.3889 -92.4328 236° Southwest 443 510 34,000  Level Kansas City Center
08:39PM 40.3264 -92.5544 236° Southwest 445 512 34,000 -120 Level Kansas City Center
08:40PM 40.2503 -92.7008 236° Southwest 439 505 33,800 -540 Descending Kansas City Center
08:41PM 40.1831 -92.8289 236° Southwest 444 511 32,900 -1,020 Descending Kansas City Center
08:42PM 40.1056 -92.9769 236° Southwest 442 509 31,800 -1,500 Descending Kansas City Center
08:43PM 40.0342 -93.1136 236° Southwest 445 512 29,900 -2,640 Descending Kansas City Center
08:44PM 39.9636 -93.2469 235° Southwest 449 517 26,500 -3,300 Descending Kansas City Center
08:45PM 39.8933 -93.3794 235° Southwest 450 518 23,100 -3,180 Descending Kansas City Center
08:46PM 39.8231 -93.5094 235° Southwest 446 513 20,100 -1,920 Descending Kansas City Center
08:47PM 39.7594 -93.6308 236° Southwest 421 484 19,200 -900 Descending Kansas City Center
08:48PM 39.6953 -93.7511 235° Southwest 368 423 18,300 -2,640 Descending Kansas City Center
08:49PM 39.6317 -93.8731 236° Southwest 368 423 13,900 -3,420 Descending Kansas City Center
08:50PM 39.5769 -93.9808 237° Southwest 371 427 11,400 -1,800 Descending Kansas City Center
08:51PM 39.5428 -94.0817 246° West 325 374 10,200 -1,200 Descending Kansas City Center
08:52PM 39.5281 -94.1894 260° West 271 312 9,000 -1,320 Descending Kansas City Center
08:53PM 39.5144 -94.2803 259° West 268 308 7,600 -1,380 Descending Kansas City Center
08:54PM 39.4992 -94.3822 259° West 258 297 6,200 -1,260 Descending Kansas City Center
08:55PM 39.4869 -94.4656 259° West 248 285 5,100 -1,080 Descending Kansas City Center
08:56PM 39.4719 -94.5622 259° West 245 282 4,000 -1,080 Descending Kansas City Center